createdAt,value
2019-02-15T00:03:33.413Z,3.70
2019-02-15T00:08:36.118Z,3.50
2019-02-15T00:13:38.827Z,2.63
2019-02-15T00:18:59.574Z,2.97
2019-02-15T00:24:02.358Z,3.33
2019-02-15T00:29:05.054Z,3.20
2019-02-15T00:34:08.187Z,3.70
2019-02-15T00:39:11.042Z,3.33
2019-02-15T00:44:13.726Z,3.07
2019-02-15T00:49:36.888Z,2.93
2019-02-15T00:54:47.431Z,3.30
2019-02-15T01:00:12.630Z,3.17
2019-02-15T01:05:33.459Z,2.90
2019-02-15T01:10:42.253Z,3.53
2019-02-15T01:15:45.010Z,4.00
2019-02-15T01:20:47.689Z,3.77
2019-02-15T01:25:59.016Z,3.93
2019-02-15T01:31:24.292Z,3.80
2019-02-15T01:36:46.625Z,3.87
2019-02-15T01:42:06.539Z,3.27
2019-02-15T01:47:13.534Z,3.67
2019-02-15T01:52:16.227Z,4.30
2019-02-15T01:57:18.922Z,3.00
2019-02-15T02:02:23.509Z,4.17
2019-02-15T02:07:26.402Z,4.37
2019-02-15T02:12:29.068Z,4.47
2019-02-15T02:17:31.747Z,3.83
2019-02-15T02:22:34.423Z,3.63
2019-02-15T02:27:37.103Z,4.03
2019-02-15T02:32:39.807Z,3.60
2019-02-15T02:37:42.467Z,4.30
2019-02-15T02:42:45.150Z,4.57
2019-02-15T02:47:47.831Z,4.60
2019-02-15T02:52:50.522Z,3.80
2019-02-15T02:57:53.194Z,3.80
2019-02-15T03:02:55.871Z,3.90
2019-02-15T03:07:58.550Z,3.70
2019-02-15T03:13:01.226Z,4.43
2019-02-15T03:18:03.906Z,3.80
2019-02-15T03:23:06.594Z,3.50
2019-02-15T03:28:09.265Z,3.30
2019-02-15T03:33:11.955Z,3.30
2019-02-15T03:38:30.840Z,4.07
2019-02-15T03:43:33.516Z,4.20
2019-02-15T03:48:36.214Z,3.50
2019-02-15T03:53:38.878Z,3.83
2019-02-15T03:58:41.549Z,4.50
2019-02-15T04:03:44.243Z,4.07
2019-02-15T04:08:47.011Z,3.73
2019-02-15T04:13:49.705Z,3.50
2019-02-15T04:18:52.375Z,3.90
2019-02-15T04:23:55.221Z,4.57
2019-02-15T04:28:57.990Z,4.33
2019-02-15T04:34:00.845Z,3.80
2019-02-15T04:39:04.431Z,4.00
2019-02-15T04:44:07.095Z,4.23
2019-02-15T04:49:09.887Z,5.03
2019-02-15T04:54:12.563Z,4.50
2019-02-15T04:59:15.257Z,4.00
2019-02-15T05:04:17.933Z,4.13
2019-02-15T05:09:20.618Z,4.23
2019-02-15T05:14:23.311Z,4.60
2019-02-15T05:19:25.994Z,4.90
2019-02-15T05:24:28.727Z,4.10
2019-02-15T05:29:31.433Z,3.80
2019-02-15T05:34:34.158Z,4.20
2019-02-15T05:39:36.889Z,3.70
2019-02-15T05:44:39.570Z,4.57
2019-02-15T05:49:42.248Z,3.90
2019-02-15T05:54:45.017Z,4.17
2019-02-15T05:59:47.710Z,4.20
2019-02-15T06:04:50.421Z,3.93
2019-02-15T06:09:53.149Z,4.27
2019-02-15T06:14:56.214Z,4.73
2019-02-15T06:19:58.893Z,5.10
2019-02-15T06:25:01.584Z,5.17
2019-02-15T06:30:04.561Z,4.87
2019-02-15T06:35:07.281Z,5.63
2019-02-15T06:40:09.959Z,5.63
2019-02-15T06:45:12.657Z,5.40
2019-02-15T06:50:15.320Z,5.17
2019-02-15T06:55:17.991Z,5.13
2019-02-15T07:00:38.724Z,3.83
2019-02-15T07:05:41.418Z,4.50
2019-02-15T07:10:44.078Z,4.20
2019-02-15T07:15:46.791Z,4.20
2019-02-15T07:20:49.473Z,6.50
2019-02-15T07:25:52.147Z,4.43
2019-02-15T07:30:54.822Z,4.80
2019-02-15T07:35:57.523Z,4.43
2019-02-15T07:41:00.270Z,4.37
2019-02-15T07:46:02.937Z,4.87
2019-02-15T07:51:09.720Z,4.70
2019-02-15T07:56:10.188Z,4.90
2019-02-15T08:01:12.877Z,4.53
2019-02-15T08:06:15.569Z,4.40
2019-02-15T08:11:18.245Z,4.23
2019-02-15T08:16:20.933Z,4.20
2019-02-15T08:21:23.606Z,5.63
2019-02-15T08:26:26.417Z,6.07
2019-02-15T08:31:29.130Z,5.90
2019-02-15T08:36:31.814Z,7.90
2019-02-15T08:41:34.519Z,8.00
2019-02-15T08:46:37.243Z,7.43
2019-02-15T08:51:39.924Z,11.07
2019-02-15T08:56:42.611Z,6.70
2019-02-15T09:02:00.049Z,6.87
2019-02-15T09:07:02.842Z,8.77
2019-02-15T09:12:05.540Z,9.00
2019-02-15T09:17:08.223Z,4.63
2019-02-15T09:22:10.901Z,5.10
2019-02-15T09:27:33.888Z,5.53
2019-02-15T09:32:36.571Z,5.03
2019-02-15T09:37:39.247Z,4.97
2019-02-15T09:42:41.936Z,5.90
2019-02-15T09:47:44.635Z,5.50
2019-02-15T09:52:47.338Z,6.30
2019-02-15T09:57:50.029Z,5.60
2019-02-15T10:02:52.711Z,4.90
2019-02-15T10:07:55.376Z,4.57
2019-02-15T10:12:58.054Z,5.10
2019-02-15T10:18:00.746Z,5.10
2019-02-15T10:23:03.428Z,4.07
2019-02-15T10:28:06.092Z,3.87
2019-02-15T10:33:08.751Z,4.50
2019-02-15T10:38:11.429Z,4.23
2019-02-15T10:43:14.116Z,3.70
2019-02-15T10:48:16.779Z,2.93
2019-02-15T10:53:19.447Z,3.00
2019-02-15T10:58:22.114Z,3.40
2019-02-15T11:03:24.784Z,3.40
2019-02-15T11:08:27.471Z,3.50
2019-02-15T11:13:30.264Z,4.30
2019-02-15T11:18:32.961Z,2.73
2019-02-15T11:23:35.641Z,2.43
2019-02-15T11:28:38.340Z,2.50
2019-02-15T11:33:41.032Z,2.77
2019-02-15T11:38:43.716Z,2.27
2019-02-15T11:43:46.479Z,3.10
2019-02-15T11:48:49.182Z,2.70
2019-02-15T11:53:51.896Z,4.00
2019-02-15T11:58:54.573Z,3.33
2019-02-15T12:03:57.252Z,2.30
2019-02-15T12:08:59.910Z,2.43
2019-02-15T12:14:02.606Z,2.60
2019-02-15T12:19:05.454Z,2.97
2019-02-15T12:24:08.138Z,3.23
2019-02-15T12:29:10.817Z,2.10
2019-02-15T12:34:13.487Z,1.90
2019-02-15T12:39:16.162Z,2.20
2019-02-15T12:44:18.835Z,2.10
2019-02-15T12:49:21.888Z,2.30
2019-02-15T12:54:24.727Z,1.90
2019-02-15T12:59:27.436Z,1.87
2019-02-15T13:04:30.158Z,1.20
2019-02-15T13:09:32.861Z,1.47
2019-02-15T13:14:35.664Z,1.50
2019-02-15T13:19:38.400Z,1.40
2019-02-15T13:24:43.182Z,1.80
2019-02-15T13:29:46.124Z,1.87
2019-02-15T13:34:48.841Z,1.73
2019-02-15T13:39:51.543Z,1.60
2019-02-15T13:44:54.233Z,1.77
2019-02-15T13:49:56.918Z,1.60
2019-02-15T13:54:59.594Z,1.93
2019-02-15T14:00:02.440Z,2.20
2019-02-15T14:05:05.220Z,1.93
2019-02-15T14:10:09.362Z,2.60
2019-02-15T14:15:12.376Z,1.77
2019-02-15T14:20:15.071Z,2.10
2019-02-15T14:25:17.753Z,2.07
2019-02-15T14:30:20.426Z,2.00
2019-02-15T14:35:23.150Z,1.50
2019-02-15T14:40:25.864Z,2.00
2019-02-15T14:45:28.555Z,1.60
2019-02-15T14:50:31.252Z,1.90
2019-02-15T14:55:33.961Z,1.33
2019-02-15T15:00:36.734Z,1.40
2019-02-15T15:05:39.492Z,1.47
2019-02-15T15:10:42.161Z,1.70
2019-02-15T15:15:44.892Z,1.97
2019-02-15T15:20:47.568Z,3.27
2019-02-15T15:25:50.238Z,1.97
2019-02-15T15:30:52.928Z,2.07
2019-02-15T15:35:55.598Z,2.77
2019-02-15T15:40:58.272Z,2.20
2019-02-15T15:46:00.949Z,1.73
2019-02-15T15:51:03.633Z,2.43
2019-02-15T15:56:06.347Z,3.23
2019-02-15T16:01:09.027Z,4.10
2019-02-15T16:06:11.706Z,1.97
2019-02-15T16:11:14.421Z,3.10
2019-02-15T16:16:17.120Z,3.50
2019-02-15T16:21:21.937Z,2.63
2019-02-15T16:26:24.375Z,2.57
2019-02-15T16:31:27.046Z,2.17
2019-02-15T16:36:29.752Z,2.90
2019-02-15T16:41:34.377Z,2.40
2019-02-15T16:46:37.070Z,2.50
2019-02-15T16:51:39.770Z,2.50
2019-02-15T16:56:42.496Z,2.30
2019-02-15T17:01:46.227Z,2.47
2019-02-15T17:06:48.922Z,3.03
2019-02-15T17:11:51.676Z,2.50
2019-02-15T17:16:54.354Z,7.37
2019-02-15T17:21:57.063Z,5.60
2019-02-15T17:26:59.763Z,2.33
2019-02-15T17:32:02.472Z,3.13
2019-02-15T17:37:06.555Z,4.60
2019-02-15T17:42:09.485Z,4.33
2019-02-15T17:47:12.187Z,3.57
2019-02-15T17:52:14.908Z,4.30
2019-02-15T17:57:17.622Z,4.80
2019-02-15T18:02:20.329Z,5.97
2019-02-15T18:07:23.005Z,5.00
2019-02-15T18:12:25.713Z,5.57
2019-02-15T18:17:28.463Z,6.40
2019-02-15T18:22:31.984Z,9.10
2019-02-15T18:27:34.664Z,5.37
2019-02-15T18:32:37.457Z,4.80
2019-02-15T18:37:40.124Z,4.47
2019-02-15T18:42:42.792Z,10.00
2019-02-15T18:47:45.469Z,4.40
2019-02-15T18:52:48.144Z,2.77
2019-02-15T18:57:50.829Z,2.20
2019-02-15T19:02:53.518Z,1.67
2019-02-15T19:07:57.274Z,2.47
2019-02-15T19:13:00.105Z,2.30
2019-02-15T19:18:02.846Z,2.30
2019-02-15T19:23:05.531Z,2.00
2019-02-15T19:28:08.215Z,1.90
2019-02-15T19:33:10.909Z,2.50
2019-02-15T19:38:13.714Z,1.70
2019-02-15T19:43:16.392Z,2.90
2019-02-15T19:48:19.070Z,1.70
2019-02-15T19:53:21.743Z,1.60
2019-02-15T19:58:24.417Z,2.00
2019-02-15T20:03:27.097Z,1.90
2019-02-15T20:08:29.814Z,1.70
2019-02-15T20:13:32.548Z,1.70
2019-02-15T20:18:35.326Z,1.30
2019-02-15T20:23:38.015Z,1.30
2019-02-15T20:28:40.688Z,1.60
2019-02-15T20:33:43.405Z,1.30
2019-02-15T20:38:46.128Z,1.37
2019-02-15T20:43:48.809Z,1.30
2019-02-15T20:49:04.331Z,1.30
2019-02-15T20:53:56.276Z,1.50
2019-02-15T20:58:58.953Z,3.57
2019-02-15T21:04:01.647Z,2.50
2019-02-15T21:09:05.932Z,2.57
2019-02-15T21:14:08.619Z,1.40
2019-02-15T21:19:11.303Z,1.80
2019-02-15T21:24:14.032Z,2.03
2019-02-15T21:29:16.748Z,2.73
2019-02-15T21:34:19.422Z,2.97
2019-02-15T21:39:22.125Z,2.50
2019-02-15T21:44:24.820Z,2.93
2019-02-15T21:49:27.527Z,2.43
2019-02-15T21:54:30.211Z,2.67
2019-02-15T21:59:33.213Z,2.30
2019-02-15T22:04:35.895Z,2.90
2019-02-15T22:09:38.603Z,1.87
2019-02-15T22:14:41.304Z,2.47
2019-02-15T22:19:43.993Z,2.17
2019-02-15T22:24:46.694Z,2.70
2019-02-15T22:29:49.394Z,2.73
2019-02-15T22:34:52.083Z,2.40
2019-02-15T22:39:54.802Z,2.80
2019-02-15T22:44:57.501Z,2.30
2019-02-15T22:50:00.229Z,2.10
2019-02-15T22:55:03.006Z,2.17
2019-02-15T23:00:13.925Z,2.40
2019-02-15T23:05:16.597Z,2.50
2019-02-15T23:10:19.283Z,2.10
2019-02-15T23:15:21.961Z,2.10
2019-02-15T23:20:24.645Z,2.23
2019-02-15T23:25:27.357Z,2.20
2019-02-15T23:30:30.047Z,2.40
2019-02-15T23:35:32.811Z,2.90
2019-02-15T23:40:35.537Z,2.20
2019-02-15T23:45:38.244Z,2.60
2019-02-15T23:50:40.937Z,2.40
2019-02-15T23:55:43.633Z,2.60
